sensor_id;sensor_type;location;lat;lon;timestamp;P1;durP1;ratioP1;P2;durP2;ratioP2
15536;SDS011;7870;52.448;13.270;2024-03-08T00:00:09;31.63;;;19.33;;
15536;SDS011;7870;52.448;13.270;2024-03-08T00:02:39;30.45;;;20.17;;
15536;SDS011;7870;52.448;13.270;2024-03-08T00:05:06;29.88;;;18.88;;
15536;SDS011;7870;52.448;13.270;2024-03-08T00:07:35;30.83;;;19.38;;
15536;SDS011;7870;52.448;13.270;2024-03-08T00:10:05;30.50;;;19.48;;
15536;SDS011;7870;52.448;13.270;2024-03-08T00:12:33;31.00;;;19.75;;
15536;SDS011;7870;52.448;13.270;2024-03-08T00:15:00;33.00;;;20.80;;
15536;SDS011;7870;52.448;13.270;2024-03-08T00:17:26;29.50;;;19.67;;
15536;SDS011;7870;52.448;13.270;2024-03-08T00:19:53;32.75;;;20.15;;
15536;SDS011;7870;52.448;13.270;2024-03-08T00:22:20;32.63;;;20.08;;
15536;SDS011;7870;52.448;13.270;2024-03-08T00:24:48;30.52;;;19.60;;
15536;SDS011;7870;52.448;13.270;2024-03-08T00:27:16;35.63;;;20.55;;
15536;SDS011;7870;52.448;13.270;2024-03-08T00:29:43;34.30;;;21.73;;
15536;SDS011;7870;52.448;13.270;2024-03-08T00:32:10;32.20;;;20.73;;
15536;SDS011;7870;52.448;13.270;2024-03-08T00:34:37;33.28;;;21.23;;
15536;SDS011;7870;52.448;13.270;2024-03-08T00:37:04;32.72;;;21.13;;
15536;SDS011;7870;52.448;13.270;2024-03-08T00:39:30;35.63;;;21.83;;
15536;SDS011;7870;52.448;13.270;2024-03-08T00:41:57;33.83;;;21.58;;
15536;SDS011;7870;52.448;13.270;2024-03-08T00:44:23;37.15;;;22.52;;
15536;SDS011;7870;52.448;13.270;2024-03-08T00:46:51;36.40;;;22.05;;
15536;SDS011;7870;52.448;13.270;2024-03-08T00:49:20;32.00;;;21.40;;
15536;SDS011;7870;52.448;13.270;2024-03-08T00:51:49;35.47;;;22.02;;
15536;SDS011;7870;52.448;13.270;2024-03-08T00:54:15;38.90;;;21.83;;
15536;SDS011;7870;52.448;13.270;2024-03-08T00:56:42;32.83;;;20.67;;
15536;SDS011;7870;52.448;13.270;2024-03-08T00:59:09;30.95;;;19.58;;
15536;SDS011;7870;52.448;13.270;2024-03-08T01:01:36;34.63;;;21.10;;
15536;SDS011;7870;52.448;13.270;2024-03-08T01:04:02;34.00;;;20.08;;
15536;SDS011;7870;52.448;13.270;2024-03-08T01:06:29;34.42;;;21.42;;
15536;SDS011;7870;52.448;13.270;2024-03-08T01:08:55;34.10;;;21.40;;
15536;SDS011;7870;52.448;13.270;2024-03-08T01:11:22;33.25;;;20.15;;
15536;SDS011;7870;52.448;13.270;2024-03-08T01:13:48;36.60;;;21.48;;
15536;SDS011;7870;52.448;13.270;2024-03-08T01:16:15;34.30;;;21.60;;
15536;SDS011;7870;52.448;13.270;2024-03-08T01:18:43;31.00;;;21.20;;
15536;SDS011;7870;52.448;13.270;2024-03-08T01:21:10;34.53;;;21.25;;
15536;SDS011;7870;52.448;13.270;2024-03-08T01:23:37;35.72;;;22.60;;
15536;SDS011;7870;52.448;13.270;2024-03-08T01:26:04;33.78;;;21.40;;
15536;SDS011;7870;52.448;13.270;2024-03-08T01:28:30;34.95;;;22.15;;
15536;SDS011;7870;52.448;13.270;2024-03-08T01:30:57;40.28;;;23.55;;
15536;SDS011;7870;52.448;13.270;2024-03-08T01:33:25;39.53;;;23.98;;
15536;SDS011;7870;52.448;13.270;2024-03-08T01:35:53;36.97;;;22.60;;
15536;SDS011;7870;52.448;13.270;2024-03-08T01:38:20;39.70;;;23.75;;
15536;SDS011;7870;52.448;13.270;2024-03-08T01:40:49;38.50;;;23.75;;
15536;SDS011;7870;52.448;13.270;2024-03-08T01:43:17;37.08;;;24.35;;
15536;SDS011;7870;52.448;13.270;2024-03-08T01:45:48;39.03;;;23.63;;
15536;SDS011;7870;52.448;13.270;2024-03-08T01:48:15;42.42;;;25.23;;
15536;SDS011;7870;52.448;13.270;2024-03-08T01:50:43;37.05;;;22.88;;
15536;SDS011;7870;52.448;13.270;2024-03-08T01:53:10;40.53;;;23.75;;
15536;SDS011;7870;52.448;13.270;2024-03-08T01:55:38;38.38;;;23.60;;
15536;SDS011;7870;52.448;13.270;2024-03-08T01:58:05;34.35;;;22.52;;
15536;SDS011;7870;52.448;13.270;2024-03-08T02:00:32;39.58;;;24.95;;
15536;SDS011;7870;52.448;13.270;2024-03-08T02:03:01;39.10;;;23.70;;
15536;SDS011;7870;52.448;13.270;2024-03-08T02:05:27;38.83;;;25.35;;
15536;SDS011;7870;52.448;13.270;2024-03-08T02:07:54;41.38;;;24.05;;
15536;SDS011;7870;52.448;13.270;2024-03-08T02:10:21;43.90;;;24.88;;
15536;SDS011;7870;52.448;13.270;2024-03-08T02:12:48;41.85;;;25.38;;
15536;SDS011;7870;52.448;13.270;2024-03-08T02:15:15;39.45;;;25.85;;
15536;SDS011;7870;52.448;13.270;2024-03-08T02:17:41;41.30;;;26.02;;
15536;SDS011;7870;52.448;13.270;2024-03-08T02:20:09;42.83;;;25.10;;
15536;SDS011;7870;52.448;13.270;2024-03-08T02:22:36;41.60;;;25.65;;
15536;SDS011;7870;52.448;13.270;2024-03-08T02:25:03;41.78;;;24.55;;
15536;SDS011;7870;52.448;13.270;2024-03-08T02:27:30;40.17;;;23.52;;
15536;SDS011;7870;52.448;13.270;2024-03-08T02:29:57;41.05;;;25.42;;
15536;SDS011;7870;52.448;13.270;2024-03-08T02:32:24;42.40;;;25.95;;
15536;SDS011;7870;52.448;13.270;2024-03-08T02:34:50;41.75;;;25.40;;
15536;SDS011;7870;52.448;13.270;2024-03-08T02:37:17;40.33;;;25.13;;
15536;SDS011;7870;52.448;13.270;2024-03-08T02:39:43;39.40;;;24.63;;
15536;SDS011;7870;52.448;13.270;2024-03-08T02:42:11;42.03;;;24.08;;
15536;SDS011;7870;52.448;13.270;2024-03-08T02:44:42;43.97;;;26.42;;
15536;SDS011;7870;52.448;13.270;2024-03-08T02:47:10;50.55;;;27.58;;
15536;SDS011;7870;52.448;13.270;2024-03-08T02:49:37;38.40;;;24.40;;
15536;SDS011;7870;52.448;13.270;2024-03-08T02:52:04;49.55;;;26.35;;
15536;SDS011;7870;52.448;13.270;2024-03-08T02:54:31;40.53;;;25.08;;
15536;SDS011;7870;52.448;13.270;2024-03-08T02:56:57;41.25;;;25.40;;
15536;SDS011;7870;52.448;13.270;2024-03-08T02:59:24;46.38;;;26.15;;
15536;SDS011;7870;52.448;13.270;2024-03-08T03:01:51;44.17;;;26.63;;
15536;SDS011;7870;52.448;13.270;2024-03-08T03:04:17;41.22;;;26.27;;
15536;SDS011;7870;52.448;13.270;2024-03-08T03:06:44;43.00;;;26.83;;
15536;SDS011;7870;52.448;13.270;2024-03-08T03:09:12;40.90;;;25.42;;
15536;SDS011;7870;52.448;13.270;2024-03-08T03:11:44;44.20;;;27.50;;
15536;SDS011;7870;52.448;13.270;2024-03-08T03:14:10;41.55;;;23.70;;
15536;SDS011;7870;52.448;13.270;2024-03-08T03:16:37;44.88;;;28.02;;
15536;SDS011;7870;52.448;13.270;2024-03-08T03:19:04;43.75;;;26.10;;
15536;SDS011;7870;52.448;13.270;2024-03-08T03:21:31;40.35;;;25.67;;
15536;SDS011;7870;52.448;13.270;2024-03-08T03:23:58;40.50;;;26.13;;
15536;SDS011;7870;52.448;13.270;2024-03-08T03:26:25;42.33;;;25.95;;
15536;SDS011;7870;52.448;13.270;2024-03-08T03:28:52;46.60;;;27.65;;
15536;SDS011;7870;52.448;13.270;2024-03-08T03:31:20;49.00;;;27.20;;
15536;SDS011;7870;52.448;13.270;2024-03-08T03:33:50;43.72;;;28.20;;
15536;SDS011;7870;52.448;13.270;2024-03-08T03:36:19;45.63;;;27.67;;
15536;SDS011;7870;52.448;13.270;2024-03-08T03:38:46;45.88;;;27.45;;
15536;SDS011;7870;52.448;13.270;2024-03-08T03:41:12;46.63;;;28.10;;
15536;SDS011;7870;52.448;13.270;2024-03-08T03:43:40;43.30;;;26.95;;
15536;SDS011;7870;52.448;13.270;2024-03-08T03:46:07;43.53;;;25.67;;
15536;SDS011;7870;52.448;13.270;2024-03-08T03:48:34;41.80;;;26.02;;
15536;SDS011;7870;52.448;13.270;2024-03-08T03:51:01;45.60;;;26.88;;
15536;SDS011;7870;52.448;13.270;2024-03-08T03:53:27;40.58;;;24.98;;
15536;SDS011;7870;52.448;13.270;2024-03-08T03:55:54;42.40;;;26.10;;
15536;SDS011;7870;52.448;13.270;2024-03-08T03:58:20;46.88;;;27.13;;
15536;SDS011;7870;52.448;13.270;2024-03-08T04:00:49;41.42;;;24.88;;
15536;SDS011;7870;52.448;13.270;2024-03-08T04:03:15;43.45;;;26.33;;
15536;SDS011;7870;52.448;13.270;2024-03-08T04:05:43;44.22;;;26.08;;
15536;SDS011;7870;52.448;13.270;2024-03-08T04:08:09;48.05;;;28.70;;
15536;SDS011;7870;52.448;13.270;2024-03-08T04:10:36;43.83;;;27.48;;
15536;SDS011;7870;52.448;13.270;2024-03-08T04:13:03;45.28;;;25.58;;
15536;SDS011;7870;52.448;13.270;2024-03-08T04:15:30;45.92;;;27.13;;
15536;SDS011;7870;52.448;13.270;2024-03-08T04:17:57;41.17;;;25.42;;
15536;SDS011;7870;52.448;13.270;2024-03-08T04:20:24;44.00;;;24.77;;
15536;SDS011;7870;52.448;13.270;2024-03-08T04:22:51;40.05;;;25.92;;
15536;SDS011;7870;52.448;13.270;2024-03-08T04:25:18;41.80;;;25.33;;
15536;SDS011;7870;52.448;13.270;2024-03-08T04:27:44;47.63;;;25.17;;
15536;SDS011;7870;52.448;13.270;2024-03-08T04:30:11;45.08;;;26.08;;
15536;SDS011;7870;52.448;13.270;2024-03-08T04:32:38;45.10;;;26.90;;
15536;SDS011;7870;52.448;13.270;2024-03-08T04:35:05;49.13;;;27.40;;
15536;SDS011;7870;52.448;13.270;2024-03-08T04:37:32;45.78;;;25.15;;
15536;SDS011;7870;52.448;13.270;2024-03-08T04:39:59;44.22;;;25.33;;
15536;SDS011;7870;52.448;13.270;2024-03-08T04:42:28;47.25;;;28.05;;
15536;SDS011;7870;52.448;13.270;2024-03-08T04:44:56;42.10;;;24.55;;
15536;SDS011;7870;52.448;13.270;2024-03-08T04:47:23;49.17;;;26.75;;
15536;SDS011;7870;52.448;13.270;2024-03-08T04:49:49;46.97;;;27.30;;
15536;SDS011;7870;52.448;13.270;2024-03-08T04:52:16;46.03;;;27.67;;
15536;SDS011;7870;52.448;13.270;2024-03-08T04:54:43;43.50;;;26.58;;
15536;SDS011;7870;52.448;13.270;2024-03-08T04:57:11;45.55;;;25.83;;
15536;SDS011;7870;52.448;13.270;2024-03-08T04:59:37;42.65;;;26.73;;
15536;SDS011;7870;52.448;13.270;2024-03-08T05:02:04;45.00;;;26.02;;
15536;SDS011;7870;52.448;13.270;2024-03-08T05:04:31;39.60;;;25.05;;
15536;SDS011;7870;52.448;13.270;2024-03-08T05:06:57;46.08;;;27.58;;
15536;SDS011;7870;52.448;13.270;2024-03-08T05:09:27;47.40;;;27.75;;
15536;SDS011;7870;52.448;13.270;2024-03-08T05:11:55;45.40;;;26.23;;
15536;SDS011;7870;52.448;13.270;2024-03-08T05:14:22;41.63;;;25.83;;
15536;SDS011;7870;52.448;13.270;2024-03-08T05:16:51;49.60;;;27.70;;
15536;SDS011;7870;52.448;13.270;2024-03-08T05:19:19;46.80;;;28.50;;
15536;SDS011;7870;52.448;13.270;2024-03-08T05:21:46;44.45;;;27.13;;
15536;SDS011;7870;52.448;13.270;2024-03-08T05:24:14;46.10;;;27.70;;
15536;SDS011;7870;52.448;13.270;2024-03-08T05:26:42;54.65;;;28.42;;
15536;SDS011;7870;52.448;13.270;2024-03-08T05:29:09;47.50;;;28.50;;
15536;SDS011;7870;52.448;13.270;2024-03-08T05:31:48;52.38;;;28.90;;
15536;SDS011;7870;52.448;13.270;2024-03-08T05:34:18;63.20;;;31.40;;
15536;SDS011;7870;52.448;13.270;2024-03-08T05:36:46;51.17;;;28.80;;
15536;SDS011;7870;52.448;13.270;2024-03-08T05:39:13;52.25;;;29.23;;
15536;SDS011;7870;52.448;13.270;2024-03-08T05:41:40;46.95;;;27.63;;
15536;SDS011;7870;52.448;13.270;2024-03-08T05:44:07;46.97;;;26.67;;
15536;SDS011;7870;52.448;13.270;2024-03-08T05:46:34;43.05;;;26.85;;
15536;SDS011;7870;52.448;13.270;2024-03-08T05:49:04;42.75;;;26.70;;
15536;SDS011;7870;52.448;13.270;2024-03-08T05:51:37;51.35;;;27.40;;
15536;SDS011;7870;52.448;13.270;2024-03-08T05:54:05;47.15;;;27.85;;
15536;SDS011;7870;52.448;13.270;2024-03-08T05:56:33;43.53;;;25.05;;
15536;SDS011;7870;52.448;13.270;2024-03-08T05:59:00;48.47;;;27.38;;
15536;SDS011;7870;52.448;13.270;2024-03-08T06:01:27;49.97;;;28.23;;
15536;SDS011;7870;52.448;13.270;2024-03-08T06:03:54;47.65;;;29.23;;
15536;SDS011;7870;52.448;13.270;2024-03-08T06:06:22;47.10;;;28.33;;
15536;SDS011;7870;52.448;13.270;2024-03-08T06:08:49;43.78;;;26.27;;
15536;SDS011;7870;52.448;13.270;2024-03-08T06:11:17;43.05;;;26.27;;
15536;SDS011;7870;52.448;13.270;2024-03-08T06:13:44;41.05;;;26.45;;
15536;SDS011;7870;52.448;13.270;2024-03-08T06:16:11;39.47;;;26.00;;
15536;SDS011;7870;52.448;13.270;2024-03-08T06:18:38;38.00;;;24.70;;
15536;SDS011;7870;52.448;13.270;2024-03-08T06:21:08;27.45;;;17.98;;
15536;SDS011;7870;52.448;13.270;2024-03-08T06:23:42;47.42;;;26.33;;
15536;SDS011;7870;52.448;13.270;2024-03-08T06:26:09;39.80;;;25.27;;
15536;SDS011;7870;52.448;13.270;2024-03-08T06:28:35;38.45;;;25.42;;
15536;SDS011;7870;52.448;13.270;2024-03-08T06:31:02;38.58;;;25.67;;
15536;SDS011;7870;52.448;13.270;2024-03-08T06:33:29;41.20;;;27.73;;
15536;SDS011;7870;52.448;13.270;2024-03-08T06:35:57;54.25;;;33.38;;
15536;SDS011;7870;52.448;13.270;2024-03-08T06:38:24;44.90;;;30.30;;
15536;SDS011;7870;52.448;13.270;2024-03-08T06:40:51;39.08;;;27.50;;
15536;SDS011;7870;52.448;13.270;2024-03-08T06:43:18;38.72;;;25.77;;
15536;SDS011;7870;52.448;13.270;2024-03-08T06:45:45;37.15;;;25.88;;
15536;SDS011;7870;52.448;13.270;2024-03-08T06:48:18;36.72;;;24.17;;
15536;SDS011;7870;52.448;13.270;2024-03-08T06:50:46;37.90;;;24.08;;
15536;SDS011;7870;52.448;13.270;2024-03-08T06:53:13;34.75;;;23.23;;
15536;SDS011;7870;52.448;13.270;2024-03-08T06:55:40;39.13;;;26.83;;
15536;SDS011;7870;52.448;13.270;2024-03-08T06:58:07;40.92;;;25.27;;
15536;SDS011;7870;52.448;13.270;2024-03-08T07:00:33;36.55;;;24.15;;
15536;SDS011;7870;52.448;13.270;2024-03-08T07:03:00;40.40;;;26.92;;
15536;SDS011;7870;52.448;13.270;2024-03-08T07:05:27;41.40;;;26.50;;
15536;SDS011;7870;52.448;13.270;2024-03-08T07:07:57;44.42;;;28.55;;
15536;SDS011;7870;52.448;13.270;2024-03-08T07:10:23;39.80;;;26.83;;
15536;SDS011;7870;52.448;13.270;2024-03-08T07:12:55;35.95;;;24.80;;
15536;SDS011;7870;52.448;13.270;2024-03-08T07:15:21;36.33;;;25.63;;
15536;SDS011;7870;52.448;13.270;2024-03-08T07:17:49;39.20;;;25.42;;
15536;SDS011;7870;52.448;13.270;2024-03-08T07:20:19;41.58;;;24.90;;
15536;SDS011;7870;52.448;13.270;2024-03-08T07:22:46;41.53;;;23.88;;
15536;SDS011;7870;52.448;13.270;2024-03-08T07:25:19;39.08;;;24.92;;
15536;SDS011;7870;52.448;13.270;2024-03-08T07:27:50;32.53;;;23.08;;
15536;SDS011;7870;52.448;13.270;2024-03-08T07:30:19;38.17;;;23.05;;
15536;SDS011;7870;52.448;13.270;2024-03-08T07:33:21;27.85;;;20.52;;
15536;SDS011;7870;52.448;13.270;2024-03-08T07:35:49;31.60;;;22.40;;
15536;SDS011;7870;52.448;13.270;2024-03-08T07:38:16;31.83;;;22.50;;
15536;SDS011;7870;52.448;13.270;2024-03-08T07:40:43;31.35;;;21.15;;
15536;SDS011;7870;52.448;13.270;2024-03-08T07:43:14;29.15;;;21.90;;
15536;SDS011;7870;52.448;13.270;2024-03-08T07:45:40;27.42;;;21.73;;
15536;SDS011;7870;52.448;13.270;2024-03-08T07:48:07;28.15;;;22.45;;
15536;SDS011;7870;52.448;13.270;2024-03-08T07:50:37;30.65;;;22.40;;
15536;SDS011;7870;52.448;13.270;2024-03-08T07:53:05;28.05;;;21.77;;
15536;SDS011;7870;52.448;13.270;2024-03-08T07:55:35;32.45;;;23.85;;
15536;SDS011;7870;52.448;13.270;2024-03-08T07:58:03;26.95;;;21.13;;
15536;SDS011;7870;52.448;13.270;2024-03-08T08:00:30;28.85;;;21.45;;
15536;SDS011;7870;52.448;13.270;2024-03-08T08:02:58;26.70;;;21.45;;
15536;SDS011;7870;52.448;13.270;2024-03-08T08:05:25;28.48;;;22.33;;
15536;SDS011;7870;52.448;13.270;2024-03-08T08:07:52;27.60;;;21.90;;
15536;SDS011;7870;52.448;13.270;2024-03-08T08:10:19;28.63;;;21.92;;
15536;SDS011;7870;52.448;13.270;2024-03-08T08:12:51;26.65;;;22.45;;
15536;SDS011;7870;52.448;13.270;2024-03-08T08:15:18;26.33;;;21.77;;
15536;SDS011;7870;52.448;13.270;2024-03-08T08:17:45;28.00;;;20.83;;
15536;SDS011;7870;52.448;13.270;2024-03-08T08:20:12;27.90;;;21.33;;
15536;SDS011;7870;52.448;13.270;2024-03-08T08:22:39;23.60;;;21.02;;
15536;SDS011;7870;52.448;13.270;2024-03-08T08:25:07;27.85;;;22.27;;
15536;SDS011;7870;52.448;13.270;2024-03-08T08:27:33;26.23;;;21.33;;
15536;SDS011;7870;52.448;13.270;2024-03-08T08:30:00;25.75;;;20.90;;
15536;SDS011;7870;52.448;13.270;2024-03-08T08:32:27;23.05;;;19.00;;
15536;SDS011;7870;52.448;13.270;2024-03-08T08:34:53;26.17;;;20.48;;
15536;SDS011;7870;52.448;13.270;2024-03-08T08:37:20;25.40;;;20.67;;
15536;SDS011;7870;52.448;13.270;2024-03-08T08:39:49;24.58;;;18.90;;
15536;SDS011;7870;52.448;13.270;2024-03-08T08:42:17;25.55;;;19.38;;
15536;SDS011;7870;52.448;13.270;2024-03-08T08:44:44;22.13;;;19.73;;
15536;SDS011;7870;52.448;13.270;2024-03-08T08:47:11;20.52;;;18.30;;
15536;SDS011;7870;52.448;13.270;2024-03-08T08:49:41;22.08;;;18.90;;
15536;SDS011;7870;52.448;13.270;2024-03-08T08:52:09;21.58;;;17.17;;
15536;SDS011;7870;52.448;13.270;2024-03-08T08:54:43;25.73;;;19.00;;
15536;SDS011;7870;52.448;13.270;2024-03-08T08:57:14;20.15;;;18.00;;
15536;SDS011;7870;52.448;13.270;2024-03-08T08:59:41;23.83;;;18.55;;
15536;SDS011;7870;52.448;13.270;2024-03-08T09:02:08;19.27;;;17.17;;
15536;SDS011;7870;52.448;13.270;2024-03-08T09:04:43;20.48;;;16.88;;
15536;SDS011;7870;52.448;13.270;2024-03-08T09:07:10;21.00;;;17.98;;
15536;SDS011;7870;52.448;13.270;2024-03-08T09:09:37;21.98;;;17.52;;
15536;SDS011;7870;52.448;13.270;2024-03-08T09:12:04;19.65;;;17.55;;
15536;SDS011;7870;52.448;13.270;2024-03-08T09:14:31;20.90;;;18.55;;
15536;SDS011;7870;52.448;13.270;2024-03-08T09:16:58;21.92;;;18.48;;
15536;SDS011;7870;52.448;13.270;2024-03-08T09:19:25;24.85;;;19.08;;
15536;SDS011;7870;52.448;13.270;2024-03-08T09:21:52;21.67;;;18.13;;
15536;SDS011;7870;52.448;13.270;2024-03-08T09:24:19;21.25;;;17.67;;
15536;SDS011;7870;52.448;13.270;2024-03-08T09:26:46;22.70;;;17.83;;
15536;SDS011;7870;52.448;13.270;2024-03-08T09:29:12;22.35;;;18.42;;
15536;SDS011;7870;52.448;13.270;2024-03-08T09:31:39;21.58;;;18.00;;
15536;SDS011;7870;52.448;13.270;2024-03-08T09:34:07;22.52;;;17.48;;
15536;SDS011;7870;52.448;13.270;2024-03-08T09:36:40;20.30;;;18.05;;
15536;SDS011;7870;52.448;13.270;2024-03-08T09:39:07;20.95;;;17.60;;
15536;SDS011;7870;52.448;13.270;2024-03-08T09:41:34;21.90;;;16.85;;
15536;SDS011;7870;52.448;13.270;2024-03-08T09:44:00;18.88;;;16.00;;
15536;SDS011;7870;52.448;13.270;2024-03-08T09:46:27;24.30;;;17.73;;
15536;SDS011;7870;52.448;13.270;2024-03-08T09:48:54;19.40;;;16.80;;
15536;SDS011;7870;52.448;13.270;2024-03-08T09:51:27;19.65;;;17.05;;
15536;SDS011;7870;52.448;13.270;2024-03-08T09:53:54;22.88;;;18.98;;
15536;SDS011;7870;52.448;13.270;2024-03-08T09:56:21;22.17;;;19.08;;
15536;SDS011;7870;52.448;13.270;2024-03-08T09:58:49;22.75;;;18.33;;
15536;SDS011;7870;52.448;13.270;2024-03-08T10:01:42;21.15;;;17.75;;
15536;SDS011;7870;52.448;13.270;2024-03-08T10:04:09;20.27;;;17.65;;
15536;SDS011;7870;52.448;13.270;2024-03-08T10:06:37;20.50;;;18.30;;
15536;SDS011;7870;52.448;13.270;2024-03-08T10:09:03;21.52;;;17.33;;
15536;SDS011;7870;52.448;13.270;2024-03-08T10:11:32;18.77;;;16.42;;
15536;SDS011;7870;52.448;13.270;2024-03-08T10:13:59;17.92;;;16.02;;
15536;SDS011;7870;52.448;13.270;2024-03-08T10:16:29;20.83;;;18.63;;
15536;SDS011;7870;52.448;13.270;2024-03-08T10:18:56;21.15;;;17.10;;
15536;SDS011;7870;52.448;13.270;2024-03-08T10:21:23;22.30;;;17.63;;
15536;SDS011;7870;52.448;13.270;2024-03-08T10:23:51;21.30;;;17.05;;
15536;SDS011;7870;52.448;13.270;2024-03-08T10:26:17;18.95;;;16.88;;
15536;SDS011;7870;52.448;13.270;2024-03-08T10:28:50;25.27;;;17.42;;
15536;SDS011;7870;52.448;13.270;2024-03-08T10:31:18;20.40;;;17.08;;
15536;SDS011;7870;52.448;13.270;2024-03-08T10:33:46;19.92;;;16.23;;
15536;SDS011;7870;52.448;13.270;2024-03-08T10:36:13;20.30;;;15.98;;
15536;SDS011;7870;52.448;13.270;2024-03-08T10:38:41;21.75;;;16.77;;
15536;SDS011;7870;52.448;13.270;2024-03-08T10:41:13;20.05;;;16.70;;
15536;SDS011;7870;52.448;13.270;2024-03-08T10:44:02;20.25;;;17.92;;
15536;SDS011;7870;52.448;13.270;2024-03-08T10:49:31;17.48;;;14.30;;
15536;SDS011;7870;52.448;13.270;2024-03-08T10:52:02;17.80;;;15.98;;
15536;SDS011;7870;52.448;13.270;2024-03-08T10:54:30;19.27;;;16.25;;
15536;SDS011;7870;52.448;13.270;2024-03-08T10:56:58;20.17;;;16.27;;
15536;SDS011;7870;52.448;13.270;2024-03-08T10:59:25;17.58;;;15.13;;
15536;SDS011;7870;52.448;13.270;2024-03-08T11:01:53;16.67;;;14.82;;
15536;SDS011;7870;52.448;13.270;2024-03-08T11:04:20;38.22;;;18.08;;
15536;SDS011;7870;52.448;13.270;2024-03-08T11:06:50;22.13;;;15.80;;
15536;SDS011;7870;52.448;13.270;2024-03-08T11:09:29;16.05;;;13.70;;
15536;SDS011;7870;52.448;13.270;2024-03-08T11:14:45;17.95;;;14.10;;
15536;SDS011;7870;52.448;13.270;2024-03-08T11:17:15;18.90;;;14.88;;
15536;SDS011;7870;52.448;13.270;2024-03-08T11:19:47;19.58;;;14.77;;
15536;SDS011;7870;52.448;13.270;2024-03-08T11:22:22;17.83;;;15.10;;
15536;SDS011;7870;52.448;13.270;2024-03-08T11:24:53;17.40;;;13.70;;
15536;SDS011;7870;52.448;13.270;2024-03-08T11:27:29;14.65;;;12.98;;
15536;SDS011;7870;52.448;13.270;2024-03-08T11:30:04;15.35;;;13.15;;
15536;SDS011;7870;52.448;13.270;2024-03-08T11:32:46;16.08;;;13.65;;
15536;SDS011;7870;52.448;13.270;2024-03-08T11:37:44;14.80;;;12.50;;
15536;SDS011;7870;52.448;13.270;2024-03-08T11:40:11;13.85;;;12.23;;
15536;SDS011;7870;52.448;13.270;2024-03-08T11:42:44;14.98;;;12.82;;
15536;SDS011;7870;52.448;13.270;2024-03-08T11:45:14;13.98;;;11.82;;
15536;SDS011;7870;52.448;13.270;2024-03-08T11:50:15;15.95;;;12.30;;
15536;SDS011;7870;52.448;13.270;2024-03-08T11:52:42;15.02;;;11.70;;
15536;SDS011;7870;52.448;13.270;2024-03-08T11:55:10;14.15;;;11.48;;
15536;SDS011;7870;52.448;13.270;2024-03-08T11:57:39;13.60;;;11.57;;
15536;SDS011;7870;52.448;13.270;2024-03-08T12:00:15;17.83;;;13.77;;
15536;SDS011;7870;52.448;13.270;2024-03-08T12:03:04;16.23;;;13.65;;
15536;SDS011;7870;52.448;13.270;2024-03-08T12:05:32;16.58;;;13.60;;
15536;SDS011;7870;52.448;13.270;2024-03-08T12:08:00;15.93;;;13.68;;
15536;SDS011;7870;52.448;13.270;2024-03-08T12:10:28;15.68;;;12.88;;
15536;SDS011;7870;52.448;13.270;2024-03-08T12:12:56;14.70;;;12.15;;
15536;SDS011;7870;52.448;13.270;2024-03-08T12:15:25;16.50;;;12.27;;
15536;SDS011;7870;52.448;13.270;2024-03-08T12:17:53;14.85;;;12.32;;
15536;SDS011;7870;52.448;13.270;2024-03-08T12:20:23;16.45;;;13.13;;
15536;SDS011;7870;52.448;13.270;2024-03-08T12:22:53;16.27;;;14.18;;
15536;SDS011;7870;52.448;13.270;2024-03-08T12:25:25;14.25;;;12.10;;
15536;SDS011;7870;52.448;13.270;2024-03-08T12:27:53;17.08;;;13.75;;
15536;SDS011;7870;52.448;13.270;2024-03-08T12:30:23;20.73;;;14.27;;
15536;SDS011;7870;52.448;13.270;2024-03-08T12:32:57;19.38;;;14.20;;
15536;SDS011;7870;52.448;13.270;2024-03-08T12:35:26;18.27;;;13.75;;
15536;SDS011;7870;52.448;13.270;2024-03-08T12:37:54;16.88;;;14.02;;
15536;SDS011;7870;52.448;13.270;2024-03-08T12:40:28;18.08;;;13.48;;
15536;SDS011;7870;52.448;13.270;2024-03-08T12:42:56;17.05;;;13.93;;
15536;SDS011;7870;52.448;13.270;2024-03-08T12:45:23;17.58;;;13.52;;
15536;SDS011;7870;52.448;13.270;2024-03-08T12:47:50;19.33;;;13.43;;
15536;SDS011;7870;52.448;13.270;2024-03-08T12:50:17;18.45;;;13.10;;
15536;SDS011;7870;52.448;13.270;2024-03-08T12:52:44;17.02;;;12.23;;
15536;SDS011;7870;52.448;13.270;2024-03-08T12:55:11;22.25;;;13.38;;
15536;SDS011;7870;52.448;13.270;2024-03-08T12:57:39;17.65;;;12.80;;
15536;SDS011;7870;52.448;13.270;2024-03-08T13:00:05;16.17;;;12.57;;
15536;SDS011;7870;52.448;13.270;2024-03-08T13:02:33;16.70;;;12.77;;
15536;SDS011;7870;52.448;13.270;2024-03-08T13:04:59;17.35;;;12.95;;
15536;SDS011;7870;52.448;13.270;2024-03-08T13:07:26;18.90;;;12.90;;
15536;SDS011;7870;52.448;13.270;2024-03-08T13:09:53;17.05;;;12.20;;
15536;SDS011;7870;52.448;13.270;2024-03-08T13:12:20;14.88;;;12.05;;
15536;SDS011;7870;52.448;13.270;2024-03-08T13:14:47;15.88;;;11.52;;
15536;SDS011;7870;52.448;13.270;2024-03-08T13:17:14;16.05;;;11.48;;
15536;SDS011;7870;52.448;13.270;2024-03-08T13:19:41;15.75;;;11.40;;
15536;SDS011;7870;52.448;13.270;2024-03-08T13:22:08;14.38;;;11.05;;
15536;SDS011;7870;52.448;13.270;2024-03-08T13:24:44;15.15;;;11.77;;
15536;SDS011;7870;52.448;13.270;2024-03-08T13:27:11;16.10;;;11.40;;
15536;SDS011;7870;52.448;13.270;2024-03-08T13:29:48;14.90;;;12.35;;
15536;SDS011;7870;52.448;13.270;2024-03-08T13:32:15;17.20;;;11.77;;
15536;SDS011;7870;52.448;13.270;2024-03-08T13:34:42;19.88;;;12.00;;
15536;SDS011;7870;52.448;13.270;2024-03-08T13:37:09;16.95;;;12.50;;
15536;SDS011;7870;52.448;13.270;2024-03-08T13:39:37;18.27;;;14.27;;
15536;SDS011;7870;52.448;13.270;2024-03-08T13:42:07;19.85;;;13.85;;
15536;SDS011;7870;52.448;13.270;2024-03-08T13:44:36;18.50;;;13.73;;
15536;SDS011;7870;52.448;13.270;2024-03-08T13:47:03;17.75;;;13.93;;
15536;SDS011;7870;52.448;13.270;2024-03-08T13:49:31;19.95;;;14.25;;
15536;SDS011;7870;52.448;13.270;2024-03-08T13:51:58;18.58;;;12.98;;
15536;SDS011;7870;52.448;13.270;2024-03-08T13:54:27;18.42;;;13.30;;
15536;SDS011;7870;52.448;13.270;2024-03-08T13:56:57;17.77;;;13.55;;
15536;SDS011;7870;52.448;13.270;2024-03-08T13:59:24;22.60;;;13.77;;
15536;SDS011;7870;52.448;13.270;2024-03-08T14:01:55;17.48;;;13.75;;
15536;SDS011;7870;52.448;13.270;2024-03-08T14:04:23;20.33;;;15.55;;
15536;SDS011;7870;52.448;13.270;2024-03-08T14:06:50;21.88;;;15.18;;
15536;SDS011;7870;52.448;13.270;2024-03-08T14:09:26;20.33;;;15.60;;
15536;SDS011;7870;52.448;13.270;2024-03-08T14:11:52;21.58;;;15.10;;
15536;SDS011;7870;52.448;13.270;2024-03-08T14:14:21;20.33;;;15.07;;
15536;SDS011;7870;52.448;13.270;2024-03-08T14:16:49;26.70;;;15.18;;
15536;SDS011;7870;52.448;13.270;2024-03-08T14:19:20;23.58;;;15.88;;
15536;SDS011;7870;52.448;13.270;2024-03-08T14:21:47;19.17;;;14.77;;
15536;SDS011;7870;52.448;13.270;2024-03-08T14:24:19;19.27;;;15.57;;
15536;SDS011;7870;52.448;13.270;2024-03-08T14:26:46;22.38;;;16.25;;
15536;SDS011;7870;52.448;13.270;2024-03-08T14:29:15;36.90;;;31.30;;
15536;SDS011;7870;52.448;13.270;2024-03-08T14:31:42;34.33;;;25.70;;
15536;SDS011;7870;52.448;13.270;2024-03-08T14:34:09;73.88;;;55.08;;
15536;SDS011;7870;52.448;13.270;2024-03-08T14:36:36;19.48;;;14.93;;